sensor_id;sensor_type;location;lat;lon;timestamp;P1;durP1;ratioP1;P2;durP2;ratioP2
8042;SDS011;4064;48.132;11.366;2023-02-28T00:01:19;8.00;;;5.22;;
8042;SDS011;4064;48.132;11.366;2023-02-28T00:03:45;4.63;;;4.20;;
8042;SDS011;4064;48.132;11.366;2023-02-28T00:06:11;7.97;;;5.23;;
8042;SDS011;4064;48.132;11.366;2023-02-28T00:08:37;7.70;;;5.20;;
8042;SDS011;4064;48.132;11.366;2023-02-28T00:11:04;4.40;;;3.97;;
8042;SDS011;4064;48.132;11.366;2023-02-28T00:13:33;5.53;;;5.03;;
8042;SDS011;4064;48.132;11.366;2023-02-28T00:16:01;6.05;;;5.10;;
8042;SDS011;4064;48.132;11.366;2023-02-28T00:18:29;5.50;;;5.00;;
8042;SDS011;4064;48.132;11.366;2023-02-28T00:20:55;5.20;;;4.80;;
8042;SDS011;4064;48.132;11.366;2023-02-28T00:23:21;6.63;;;5.07;;
8042;SDS011;4064;48.132;11.366;2023-02-28T00:25:47;6.40;;;4.47;;
8042;SDS011;4064;48.132;11.366;2023-02-28T00:28:12;5.30;;;4.63;;
8042;SDS011;4064;48.132;11.366;2023-02-28T00:30:38;5.50;;;4.50;;
8042;SDS011;4064;48.132;11.366;2023-02-28T00:33:04;7.50;;;4.67;;
8042;SDS011;4064;48.132;11.366;2023-02-28T00:35:30;7.70;;;6.27;;
8042;SDS011;4064;48.132;11.366;2023-02-28T00:37:55;8.03;;;4.90;;
8042;SDS011;4064;48.132;11.366;2023-02-28T00:40:21;6.00;;;5.40;;
8042;SDS011;4064;48.132;11.366;2023-02-28T00:42:47;5.40;;;4.87;;
8042;SDS011;4064;48.132;11.366;2023-02-28T00:45:13;8.13;;;6.60;;
8042;SDS011;4064;48.132;11.366;2023-02-28T00:47:38;6.40;;;5.23;;
8042;SDS011;4064;48.132;11.366;2023-02-28T00:50:04;6.00;;;5.10;;
8042;SDS011;4064;48.132;11.366;2023-02-28T00:52:31;7.30;;;5.40;;
8042;SDS011;4064;48.132;11.366;2023-02-28T00:54:56;6.13;;;4.80;;
8042;SDS011;4064;48.132;11.366;2023-02-28T00:57:22;6.83;;;5.10;;
8042;SDS011;4064;48.132;11.366;2023-02-28T00:59:48;5.57;;;4.97;;
8042;SDS011;4064;48.132;11.366;2023-02-28T01:02:14;5.60;;;5.00;;
8042;SDS011;4064;48.132;11.366;2023-02-28T01:04:39;6.03;;;5.43;;
8042;SDS011;4064;48.132;11.366;2023-02-28T01:07:05;5.70;;;5.03;;
8042;SDS011;4064;48.132;11.366;2023-02-28T01:09:31;5.87;;;5.30;;
8042;SDS011;4064;48.132;11.366;2023-02-28T01:11:56;8.10;;;5.60;;
8042;SDS011;4064;48.132;11.366;2023-02-28T01:14:22;5.87;;;5.30;;
8042;SDS011;4064;48.132;11.366;2023-02-28T01:16:48;9.47;;;5.20;;
8042;SDS011;4064;48.132;11.366;2023-02-28T01:19:13;8.30;;;5.57;;
8042;SDS011;4064;48.132;11.366;2023-02-28T01:21:40;6.90;;;5.57;;
8042;SDS011;4064;48.132;11.366;2023-02-28T01:24:06;8.57;;;5.72;;
8042;SDS011;4064;48.132;11.366;2023-02-28T01:26:32;6.28;;;5.68;;
8042;SDS011;4064;48.132;11.366;2023-02-28T01:28:58;7.72;;;5.65;;
8042;SDS011;4064;48.132;11.366;2023-02-28T01:31:24;5.10;;;4.60;;
8042;SDS011;4064;48.132;11.366;2023-02-28T01:33:50;5.90;;;5.40;;
8042;SDS011;4064;48.132;11.366;2023-02-28T01:36:17;6.07;;;5.57;;
8042;SDS011;4064;48.132;11.366;2023-02-28T01:38:47;6.20;;;5.40;;
8042;SDS011;4064;48.132;11.366;2023-02-28T01:41:18;8.65;;;5.20;;
8042;SDS011;4064;48.132;11.366;2023-02-28T01:46:12;5.27;;;4.77;;
8042;SDS011;4064;48.132;11.366;2023-02-28T01:48:40;7.60;;;5.50;;
8042;SDS011;4064;48.132;11.366;2023-02-28T01:51:13;6.55;;;5.63;;
8042;SDS011;4064;48.132;11.366;2023-02-28T01:53:48;7.00;;;5.50;;
8042;SDS011;4064;48.132;11.366;2023-02-28T01:56:19;6.15;;;5.45;;
8042;SDS011;4064;48.132;11.366;2023-02-28T01:58:49;6.40;;;5.50;;
8042;SDS011;4064;48.132;11.366;2023-02-28T02:01:17;5.90;;;5.15;;
8042;SDS011;4064;48.132;11.366;2023-02-28T02:03:48;8.50;;;5.88;;
8042;SDS011;4064;48.132;11.366;2023-02-28T02:06:30;5.80;;;5.28;;
8042;SDS011;4064;48.132;11.366;2023-02-28T02:09:02;5.60;;;4.97;;
8042;SDS011;4064;48.132;11.366;2023-02-28T02:11:28;11.02;;;7.25;;
8042;SDS011;4064;48.132;11.366;2023-02-28T02:19:16;6.78;;;5.32;;
8042;SDS011;4064;48.132;11.366;2023-02-28T02:35:47;6.38;;;5.63;;
8042;SDS011;4064;48.132;11.366;2023-02-28T02:38:33;7.57;;;5.75;;
8042;SDS011;4064;48.132;11.366;2023-02-28T02:41:18;6.95;;;6.10;;
8042;SDS011;4064;48.132;11.366;2023-02-28T02:44:19;7.43;;;6.43;;
8042;SDS011;4064;48.132;11.366;2023-02-28T02:47:07;6.63;;;5.85;;
8042;SDS011;4064;48.132;11.366;2023-02-28T02:49:37;5.90;;;5.30;;
8042;SDS011;4064;48.132;11.366;2023-02-28T02:52:08;6.80;;;6.20;;
8042;SDS011;4064;48.132;11.366;2023-02-28T02:54:38;6.85;;;6.13;;
8042;SDS011;4064;48.132;11.366;2023-02-28T02:57:10;6.30;;;5.70;;
8042;SDS011;4064;48.132;11.366;2023-02-28T02:59:46;8.35;;;5.70;;
8042;SDS011;4064;48.132;11.366;2023-02-28T03:02:14;7.55;;;6.88;;
8042;SDS011;4064;48.132;11.366;2023-02-28T03:04:51;5.60;;;5.10;;
8042;SDS011;4064;48.132;11.366;2023-02-28T03:07:25;6.53;;;5.75;;
8042;SDS011;4064;48.132;11.366;2023-02-28T03:09:52;8.52;;;7.65;;
8042;SDS011;4064;48.132;11.366;2023-02-28T03:12:20;7.20;;;5.75;;
8042;SDS011;4064;48.132;11.366;2023-02-28T03:14:56;8.02;;;6.35;;
8042;SDS011;4064;48.132;11.366;2023-02-28T03:17:57;8.57;;;6.25;;
8042;SDS011;4064;48.132;11.366;2023-02-28T03:23:16;5.90;;;5.30;;
8042;SDS011;4064;48.132;11.366;2023-02-28T03:25:56;6.70;;;5.50;;
8042;SDS011;4064;48.132;11.366;2023-02-28T03:28:32;9.95;;;7.18;;
8042;SDS011;4064;48.132;11.366;2023-02-28T03:31:06;6.25;;;5.65;;
8042;SDS011;4064;48.132;11.366;2023-02-28T03:33:50;7.68;;;6.53;;
8042;SDS011;4064;48.132;11.366;2023-02-28T03:36:30;7.65;;;6.88;;
8042;SDS011;4064;48.132;11.366;2023-02-28T03:39:08;8.40;;;7.32;;
8042;SDS011;4064;48.132;11.366;2023-02-28T03:41:41;7.22;;;6.53;;
8042;SDS011;4064;48.132;11.366;2023-02-28T03:44:17;10.25;;;6.15;;
8042;SDS011;4064;48.132;11.366;2023-02-28T03:47:00;11.45;;;7.30;;
8042;SDS011;4064;48.132;11.366;2023-02-28T03:49:31;7.72;;;6.47;;
8042;SDS011;4064;48.132;11.366;2023-02-28T03:52:02;6.82;;;6.13;;
8042;SDS011;4064;48.132;11.366;2023-02-28T03:54:31;8.48;;;7.25;;
8042;SDS011;4064;48.132;11.366;2023-02-28T03:57:05;10.23;;;6.32;;
8042;SDS011;4064;48.132;11.366;2023-02-28T03:59:37;8.80;;;6.63;;
8042;SDS011;4064;48.132;11.366;2023-02-28T04:02:09;7.25;;;6.20;;
8042;SDS011;4064;48.132;11.366;2023-02-28T04:04:35;8.13;;;7.40;;
8042;SDS011;4064;48.132;11.366;2023-02-28T04:07:05;11.30;;;7.28;;
8042;SDS011;4064;48.132;11.366;2023-02-28T04:09:33;8.82;;;7.15;;
8042;SDS011;4064;48.132;11.366;2023-02-28T04:11:58;9.70;;;7.00;;
8042;SDS011;4064;48.132;11.366;2023-02-28T04:14:24;10.97;;;7.73;;
8042;SDS011;4064;48.132;11.366;2023-02-28T04:16:50;12.50;;;7.27;;
8042;SDS011;4064;48.132;11.366;2023-02-28T04:19:18;17.90;;;8.07;;
8042;SDS011;4064;48.132;11.366;2023-02-28T04:21:45;8.20;;;7.35;;
8042;SDS011;4064;48.132;11.366;2023-02-28T04:24:14;7.50;;;6.80;;
8042;SDS011;4064;48.132;11.366;2023-02-28T04:26:43;10.20;;;7.78;;
8042;SDS011;4064;48.132;11.366;2023-02-28T04:29:11;9.35;;;7.15;;
8042;SDS011;4064;48.132;11.366;2023-02-28T04:31:38;8.65;;;7.03;;
8042;SDS011;4064;48.132;11.366;2023-02-28T04:34:04;13.40;;;7.53;;
8042;SDS011;4064;48.132;11.366;2023-02-28T04:36:30;8.15;;;7.35;;
8042;SDS011;4064;48.132;11.366;2023-02-28T04:38:56;8.35;;;7.35;;
8042;SDS011;4064;48.132;11.366;2023-02-28T04:41:22;11.27;;;7.50;;
8042;SDS011;4064;48.132;11.366;2023-02-28T04:43:48;10.23;;;7.50;;
8042;SDS011;4064;48.132;11.366;2023-02-28T04:46:14;8.73;;;7.57;;
8042;SDS011;4064;48.132;11.366;2023-02-28T04:48:40;11.35;;;7.82;;
8042;SDS011;4064;48.132;11.366;2023-02-28T04:51:07;11.70;;;8.13;;
8042;SDS011;4064;48.132;11.366;2023-02-28T04:53:35;11.13;;;7.65;;
8042;SDS011;4064;48.132;11.366;2023-02-28T04:56:02;8.70;;;7.35;;
8042;SDS011;4064;48.132;11.366;2023-02-28T04:58:28;9.95;;;8.73;;
8042;SDS011;4064;48.132;11.366;2023-02-28T05:00:56;8.45;;;7.65;;
8042;SDS011;4064;48.132;11.366;2023-02-28T05:03:40;9.65;;;8.65;;
8042;SDS011;4064;48.132;11.366;2023-02-28T05:06:07;9.73;;;7.95;;
8042;SDS011;4064;48.132;11.366;2023-02-28T05:08:34;10.73;;;9.63;;
8042;SDS011;4064;48.132;11.366;2023-02-28T05:11:00;10.10;;;8.67;;
8042;SDS011;4064;48.132;11.366;2023-02-28T05:13:27;12.50;;;8.85;;
8042;SDS011;4064;48.132;11.366;2023-02-28T05:15:53;10.02;;;8.98;;
8042;SDS011;4064;48.132;11.366;2023-02-28T05:18:19;13.32;;;8.65;;
8042;SDS011;4064;48.132;11.366;2023-02-28T05:20:45;10.90;;;8.27;;
8042;SDS011;4064;48.132;11.366;2023-02-28T05:23:12;12.50;;;8.90;;
8042;SDS011;4064;48.132;11.366;2023-02-28T05:25:39;10.77;;;8.65;;
8042;SDS011;4064;48.132;11.366;2023-02-28T05:28:05;11.57;;;9.38;;
8042;SDS011;4064;48.132;11.366;2023-02-28T05:30:31;11.80;;;10.45;;
8042;SDS011;4064;48.132;11.366;2023-02-28T05:32:57;10.40;;;9.13;;
8042;SDS011;4064;48.132;11.366;2023-02-28T05:35:24;11.43;;;9.63;;
8042;SDS011;4064;48.132;11.366;2023-02-28T05:37:50;12.65;;;9.93;;
8042;SDS011;4064;48.132;11.366;2023-02-28T05:40:15;13.37;;;9.53;;
8042;SDS011;4064;48.132;11.366;2023-02-28T05:42:42;12.85;;;9.43;;
8042;SDS011;4064;48.132;11.366;2023-02-28T05:45:08;11.13;;;10.02;;
8042;SDS011;4064;48.132;11.366;2023-02-28T05:47:34;13.48;;;10.27;;
8042;SDS011;4064;48.132;11.366;2023-02-28T05:50:00;14.43;;;11.60;;
8042;SDS011;4064;48.132;11.366;2023-02-28T05:52:27;11.35;;;8.90;;
8042;SDS011;4064;48.132;11.366;2023-02-28T05:54:55;15.73;;;10.63;;
8042;SDS011;4064;48.132;11.366;2023-02-28T05:57:20;17.50;;;12.10;;
8042;SDS011;4064;48.132;11.366;2023-02-28T05:59:47;13.32;;;10.55;;
8042;SDS011;4064;48.132;11.366;2023-02-28T06:02:13;15.60;;;12.20;;
8042;SDS011;4064;48.132;11.366;2023-02-28T06:04:40;13.43;;;11.25;;
8042;SDS011;4064;48.132;11.366;2023-02-28T06:07:07;14.85;;;12.85;;
8042;SDS011;4064;48.132;11.366;2023-02-28T06:09:34;14.90;;;12.30;;
8042;SDS011;4064;48.132;11.366;2023-02-28T06:12:00;21.27;;;14.02;;
8042;SDS011;4064;48.132;11.366;2023-02-28T06:14:35;17.92;;;13.57;;
8042;SDS011;4064;48.132;11.366;2023-02-28T06:17:01;18.27;;;13.85;;
8042;SDS011;4064;48.132;11.366;2023-02-28T06:19:28;15.32;;;12.85;;
8042;SDS011;4064;48.132;11.366;2023-02-28T06:21:55;17.80;;;12.05;;
8042;SDS011;4064;48.132;11.366;2023-02-28T06:24:22;19.40;;;13.60;;
8042;SDS011;4064;48.132;11.366;2023-02-28T06:26:49;17.55;;;13.82;;
8042;SDS011;4064;48.132;11.366;2023-02-28T06:29:15;20.10;;;16.98;;
8042;SDS011;4064;48.132;11.366;2023-02-28T06:31:43;18.35;;;14.10;;
8042;SDS011;4064;48.132;11.366;2023-02-28T06:34:10;16.08;;;12.77;;
8042;SDS011;4064;48.132;11.366;2023-02-28T06:36:39;18.73;;;14.35;;
8042;SDS011;4064;48.132;11.366;2023-02-28T06:39:05;18.75;;;14.77;;
8042;SDS011;4064;48.132;11.366;2023-02-28T06:41:31;14.65;;;12.15;;
8042;SDS011;4064;48.132;11.366;2023-02-28T06:44:02;17.08;;;14.45;;
8042;SDS011;4064;48.132;11.366;2023-02-28T06:46:36;17.52;;;13.88;;
8042;SDS011;4064;48.132;11.366;2023-02-28T06:49:05;21.27;;;15.23;;
8042;SDS011;4064;48.132;11.366;2023-02-28T06:51:33;17.85;;;14.18;;
8042;SDS011;4064;48.132;11.366;2023-02-28T06:53:59;20.25;;;15.10;;
8042;SDS011;4064;48.132;11.366;2023-02-28T06:56:25;18.97;;;14.80;;
8042;SDS011;4064;48.132;11.366;2023-02-28T06:58:51;20.20;;;14.00;;
8042;SDS011;4064;48.132;11.366;2023-02-28T07:01:18;20.77;;;15.48;;
8042;SDS011;4064;48.132;11.366;2023-02-28T07:03:44;20.73;;;15.63;;
8042;SDS011;4064;48.132;11.366;2023-02-28T07:06:10;19.02;;;16.13;;
8042;SDS011;4064;48.132;11.366;2023-02-28T07:08:36;18.17;;;14.10;;
8042;SDS011;4064;48.132;11.366;2023-02-28T07:11:02;19.63;;;13.90;;
8042;SDS011;4064;48.132;11.366;2023-02-28T07:13:28;25.02;;;16.40;;
8042;SDS011;4064;48.132;11.366;2023-02-28T07:18:24;20.10;;;15.15;;
8042;SDS011;4064;48.132;11.366;2023-02-28T07:20:50;21.75;;;15.60;;
8042;SDS011;4064;48.132;11.366;2023-02-28T07:23:17;21.08;;;16.25;;
8042;SDS011;4064;48.132;11.366;2023-02-28T07:25:43;20.45;;;16.17;;
8042;SDS011;4064;48.132;11.366;2023-02-28T07:28:09;21.23;;;16.00;;
8042;SDS011;4064;48.132;11.366;2023-02-28T07:30:34;21.83;;;16.30;;
8042;SDS011;4064;48.132;11.366;2023-02-28T07:33:00;26.47;;;18.40;;
8042;SDS011;4064;48.132;11.366;2023-02-28T07:35:26;28.27;;;17.73;;
8042;SDS011;4064;48.132;11.366;2023-02-28T07:37:51;20.73;;;15.03;;
8042;SDS011;4064;48.132;11.366;2023-02-28T07:40:17;19.20;;;14.57;;
8042;SDS011;4064;48.132;11.366;2023-02-28T07:42:43;18.55;;;15.68;;
8042;SDS011;4064;48.132;11.366;2023-02-28T07:45:10;21.15;;;15.65;;
8042;SDS011;4064;48.132;11.366;2023-02-28T07:47:39;19.15;;;17.05;;
8042;SDS011;4064;48.132;11.366;2023-02-28T07:50:06;21.25;;;16.25;;
8042;SDS011;4064;48.132;11.366;2023-02-28T07:52:35;19.98;;;16.20;;
8042;SDS011;4064;48.132;11.366;2023-02-28T07:55:02;19.35;;;16.02;;
8042;SDS011;4064;48.132;11.366;2023-02-28T07:57:27;21.05;;;18.90;;
8042;SDS011;4064;48.132;11.366;2023-02-28T07:59:53;17.73;;;15.47;;
8042;SDS011;4064;48.132;11.366;2023-02-28T08:02:19;22.07;;;14.97;;
8042;SDS011;4064;48.132;11.366;2023-02-28T08:04:45;21.10;;;16.20;;
8042;SDS011;4064;48.132;11.366;2023-02-28T08:07:12;20.50;;;15.53;;
8042;SDS011;4064;48.132;11.366;2023-02-28T08:09:38;23.15;;;15.55;;
8042;SDS011;4064;48.132;11.366;2023-02-28T08:12:06;19.15;;;14.45;;
8042;SDS011;4064;48.132;11.366;2023-02-28T08:14:32;23.45;;;15.30;;
8042;SDS011;4064;48.132;11.366;2023-02-28T08:16:59;24.30;;;16.02;;
8042;SDS011;4064;48.132;11.366;2023-02-28T08:19:24;24.40;;;15.03;;
8042;SDS011;4064;48.132;11.366;2023-02-28T08:21:50;22.30;;;17.17;;
8042;SDS011;4064;48.132;11.366;2023-02-28T08:24:16;20.40;;;16.97;;
8042;SDS011;4064;48.132;11.366;2023-02-28T08:26:42;22.43;;;16.50;;
8042;SDS011;4064;48.132;11.366;2023-02-28T08:29:08;18.30;;;14.90;;
8042;SDS011;4064;48.132;11.366;2023-02-28T08:31:34;21.20;;;15.80;;
8042;SDS011;4064;48.132;11.366;2023-02-28T08:34:04;22.63;;;16.40;;
8042;SDS011;4064;48.132;11.366;2023-02-28T08:36:31;23.23;;;14.95;;
8042;SDS011;4064;48.132;11.366;2023-02-28T08:38:56;18.20;;;15.27;;
8042;SDS011;4064;48.132;11.366;2023-02-28T08:41:23;21.65;;;15.85;;
8042;SDS011;4064;48.132;11.366;2023-02-28T08:43:48;19.50;;;16.13;;
8042;SDS011;4064;48.132;11.366;2023-02-28T08:46:14;21.00;;;16.20;;
8042;SDS011;4064;48.132;11.366;2023-02-28T08:48:40;20.77;;;16.27;;
8042;SDS011;4064;48.132;11.366;2023-02-28T08:51:07;20.35;;;17.73;;
8042;SDS011;4064;48.132;11.366;2023-02-28T08:53:38;19.45;;;15.73;;
8042;SDS011;4064;48.132;11.366;2023-02-28T08:56:06;26.27;;;17.77;;
8042;SDS011;4064;48.132;11.366;2023-02-28T08:58:34;19.08;;;16.65;;
8042;SDS011;4064;48.132;11.366;2023-02-28T09:01:00;22.02;;;16.55;;
8042;SDS011;4064;48.132;11.366;2023-02-28T09:03:37;23.05;;;15.40;;
8042;SDS011;4064;48.132;11.366;2023-02-28T09:06:03;18.30;;;15.00;;
8042;SDS011;4064;48.132;11.366;2023-02-28T09:08:30;18.73;;;15.80;;
8042;SDS011;4064;48.132;11.366;2023-02-28T09:10:56;20.40;;;16.52;;
8042;SDS011;4064;48.132;11.366;2023-02-28T09:13:23;17.55;;;15.57;;
8042;SDS011;4064;48.132;11.366;2023-02-28T09:15:50;20.38;;;15.60;;
8042;SDS011;4064;48.132;11.366;2023-02-28T09:18:16;26.60;;;17.20;;
8042;SDS011;4064;48.132;11.366;2023-02-28T09:20:42;18.23;;;15.57;;
8042;SDS011;4064;48.132;11.366;2023-02-28T09:23:09;19.98;;;16.70;;
8042;SDS011;4064;48.132;11.366;2023-02-28T09:25:36;22.15;;;17.10;;
8042;SDS011;4064;48.132;11.366;2023-02-28T09:28:02;20.98;;;16.00;;
8042;SDS011;4064;48.132;11.366;2023-02-28T09:30:28;26.98;;;17.70;;
8042;SDS011;4064;48.132;11.366;2023-02-28T09:32:55;21.90;;;15.70;;
8042;SDS011;4064;48.132;11.366;2023-02-28T09:35:21;19.02;;;16.45;;
8042;SDS011;4064;48.132;11.366;2023-02-28T09:37:49;17.55;;;15.43;;
8042;SDS011;4064;48.132;11.366;2023-02-28T09:40:17;17.48;;;15.15;;
8042;SDS011;4064;48.132;11.366;2023-02-28T09:42:49;20.27;;;15.93;;
8042;SDS011;4064;48.132;11.366;2023-02-28T09:45:28;21.10;;;16.27;;
8042;SDS011;4064;48.132;11.366;2023-02-28T09:48:06;17.58;;;15.75;;
8042;SDS011;4064;48.132;11.366;2023-02-28T09:50:41;18.55;;;15.68;;
8042;SDS011;4064;48.132;11.366;2023-02-28T09:53:26;19.50;;;15.38;;
8042;SDS011;4064;48.132;11.366;2023-02-28T09:56:03;22.45;;;16.35;;
8042;SDS011;4064;48.132;11.366;2023-02-28T10:01:06;21.05;;;15.88;;
8042;SDS011;4064;48.132;11.366;2023-02-28T10:06:39;19.35;;;16.10;;
8042;SDS011;4064;48.132;11.366;2023-02-28T10:09:19;18.42;;;15.88;;
8042;SDS011;4064;48.132;11.366;2023-02-28T10:11:50;21.58;;;16.45;;
8042;SDS011;4064;48.132;11.366;2023-02-28T10:14:19;22.23;;;16.20;;
8042;SDS011;4064;48.132;11.366;2023-02-28T10:16:49;18.83;;;15.50;;
8042;SDS011;4064;48.132;11.366;2023-02-28T10:22:41;21.70;;;16.25;;
8042;SDS011;4064;48.132;11.366;2023-02-28T10:25:26;17.98;;;14.90;;
8042;SDS011;4064;48.132;11.366;2023-02-28T10:28:28;18.02;;;15.93;;
8042;SDS011;4064;48.132;11.366;2023-02-28T10:30:47;19.17;;;16.60;;
8042;SDS011;4064;48.132;11.366;2023-02-28T10:33:25;17.40;;;14.98;;
8042;SDS011;4064;48.132;11.366;2023-02-28T10:35:57;20.42;;;16.70;;
8042;SDS011;4064;48.132;11.366;2023-02-28T10:38:24;18.55;;;15.75;;
8042;SDS011;4064;48.132;11.366;2023-02-28T10:41:01;17.88;;;15.98;;
8042;SDS011;4064;48.132;11.366;2023-02-28T10:43:40;19.95;;;15.73;;
8042;SDS011;4064;48.132;11.366;2023-02-28T10:48:37;19.30;;;14.93;;
8042;SDS011;4064;48.132;11.366;2023-02-28T10:51:08;23.60;;;16.60;;
8042;SDS011;4064;48.132;11.366;2023-02-28T10:53:45;19.65;;;15.65;;
8042;SDS011;4064;48.132;11.366;2023-02-28T11:01:44;21.70;;;16.38;;
8042;SDS011;4064;48.132;11.366;2023-02-28T11:04:23;20.92;;;16.40;;
8042;SDS011;4064;48.132;11.366;2023-02-28T11:07:04;17.88;;;16.02;;
8042;SDS011;4064;48.132;11.366;2023-02-28T11:09:34;20.52;;;16.17;;
8042;SDS011;4064;48.132;11.366;2023-02-28T11:12:04;19.95;;;16.77;;
8042;SDS011;4064;48.132;11.366;2023-02-28T11:14:48;20.27;;;15.48;;
8042;SDS011;4064;48.132;11.366;2023-02-28T11:17:21;18.67;;;15.02;;
8042;SDS011;4064;48.132;11.366;2023-02-28T11:19:55;19.90;;;15.48;;
8042;SDS011;4064;48.132;11.366;2023-02-28T11:22:29;16.88;;;14.57;;
8042;SDS011;4064;48.132;11.366;2023-02-28T11:25:02;15.10;;;13.60;;
8042;SDS011;4064;48.132;11.366;2023-02-28T11:27:44;18.73;;;14.10;;
8042;SDS011;4064;48.132;11.366;2023-02-28T11:30:34;19.27;;;15.35;;
8042;SDS011;4064;48.132;11.366;2023-02-28T11:33:01;19.30;;;15.77;;
8042;SDS011;4064;48.132;11.366;2023-02-28T11:36:04;21.95;;;18.58;;
8042;SDS011;4064;48.132;11.366;2023-02-28T11:38:35;21.58;;;19.27;;
8042;SDS011;4064;48.132;11.366;2023-02-28T11:41:05;16.48;;;14.88;;
8042;SDS011;4064;48.132;11.366;2023-02-28T11:43:38;17.67;;;15.77;;
8042;SDS011;4064;48.132;11.366;2023-02-28T11:46:36;17.42;;;15.32;;
8042;SDS011;4064;48.132;11.366;2023-02-28T11:51:46;16.98;;;14.23;;
8042;SDS011;4064;48.132;11.366;2023-02-28T11:54:23;17.40;;;14.73;;
8042;SDS011;4064;48.132;11.366;2023-02-28T11:57:12;17.00;;;15.30;;
8042;SDS011;4064;48.132;11.366;2023-02-28T11:59:57;17.42;;;15.52;;
8042;SDS011;4064;48.132;11.366;2023-02-28T12:02:36;20.17;;;15.93;;
8042;SDS011;4064;48.132;11.366;2023-02-28T12:05:11;17.27;;;15.00;;
8042;SDS011;4064;48.132;11.366;2023-02-28T12:27:18;16.52;;;14.80;;
8042;SDS011;4064;48.132;11.366;2023-02-28T12:29:52;16.15;;;14.27;;
8042;SDS011;4064;48.132;11.366;2023-02-28T12:32:27;18.00;;;14.52;;
8042;SDS011;4064;48.132;11.366;2023-02-28T12:34:58;17.35;;;14.27;;
8042;SDS011;4064;48.132;11.366;2023-02-28T12:37:31;15.75;;;14.15;;
8042;SDS011;4064;48.132;11.366;2023-02-28T12:40:11;14.30;;;12.93;;
8042;SDS011;4064;48.132;11.366;2023-02-28T12:42:44;16.23;;;14.52;;
8042;SDS011;4064;48.132;11.366;2023-02-28T12:48:10;15.05;;;13.45;;
8042;SDS011;4064;48.132;11.366;2023-02-28T12:50:44;16.20;;;14.53;;
8042;SDS011;4064;48.132;11.366;2023-02-28T12:58:45;19.70;;;14.53;;
8042;SDS011;4064;48.132;11.366;2023-02-28T13:09:26;14.90;;;13.03;;
8042;SDS011;4064;48.132;11.366;2023-02-28T13:11:54;15.23;;;13.63;;
8042;SDS011;4064;48.132;11.366;2023-02-28T13:25:49;16.13;;;14.20;;
8042;SDS011;4064;48.132;11.366;2023-02-28T13:27:51;18.20;;;13.67;;
8042;SDS011;4064;48.132;11.366;2023-02-28T13:33:28;14.83;;;13.27;;
8042;SDS011;4064;48.132;11.366;2023-02-28T13:38:43;15.87;;;13.40;;
8042;SDS011;4064;48.132;11.366;2023-02-28T13:44:07;18.13;;;12.73;;
8042;SDS011;4064;48.132;11.366;2023-02-28T14:05:06;14.90;;;13.30;;
8042;SDS011;4064;48.132;11.366;2023-02-28T14:07:44;15.45;;;13.20;;
8042;SDS011;4064;48.132;11.366;2023-02-28T14:10:33;14.70;;;13.10;;
8042;SDS011;4064;48.132;11.366;2023-02-28T14:15:56;16.35;;;13.57;;
8042;SDS011;4064;48.132;11.366;2023-02-28T14:18:30;17.73;;;12.90;;
8042;SDS011;4064;48.132;11.366;2023-02-28T14:37:30;18.05;;;14.55;;
8042;SDS011;4064;48.132;11.366;2023-02-28T14:40:01;15.40;;;13.18;;
8042;SDS011;4064;48.132;11.366;2023-02-28T14:42:36;15.40;;;13.73;;
8042;SDS011;4064;48.132;11.366;2023-02-28T14:45:03;15.18;;;13.57;;
8042;SDS011;4064;48.132;11.366;2023-02-28T14:47:30;14.82;;;12.70;;
8042;SDS011;4064;48.132;11.366;2023-02-28T14:49:58;17.60;;;14.18;;
8042;SDS011;4064;48.132;11.366;2023-02-28T14:52:32;16.17;;;12.95;;
8042;SDS011;4064;48.132;11.366;2023-02-28T14:54:59;14.93;;;13.32;;
8042;SDS011;4064;48.132;11.366;2023-02-28T14:57:32;15.32;;;12.70;;
8042;SDS011;4064;48.132;11.366;2023-02-28T15:00:11;16.70;;;13.10;;
8042;SDS011;4064;48.132;11.366;2023-02-28T15:02:39;17.13;;;14.02;;
8042;SDS011;4064;48.132;11.366;2023-02-28T15:07:34;15.30;;;13.73;;
8042;SDS011;4064;48.132;11.366;2023-02-28T15:10:08;15.85;;;14.23;;
8042;SDS011;4064;48.132;11.366;2023-02-28T15:12:45;14.50;;;13.00;;
8042;SDS011;4064;48.132;11.366;2023-02-28T15:18:30;14.60;;;12.50;;
8042;SDS011;4064;48.132;11.366;2023-02-28T15:20:58;15.05;;;13.63;;
8042;SDS011;4064;48.132;11.366;2023-02-28T15:23:31;13.88;;;12.40;;
8042;SDS011;4064;48.132;11.366;2023-02-28T15:25:57;14.00;;;12.50;;
8042;SDS011;4064;48.132;11.366;2023-02-28T15:28:24;14.30;;;12.85;;
8042;SDS011;4064;48.132;11.366;2023-02-28T15:30:57;15.30;;;13.20;;
8042;SDS011;4064;48.132;11.366;2023-02-28T15:33:31;17.00;;;13.43;;
8042;SDS011;4064;48.132;11.366;2023-02-28T15:36:05;21.42;;;16.10;;
8042;SDS011;4064;48.132;11.366;2023-02-28T15:38:38;17.50;;;13.45;;
8042;SDS011;4064;48.132;11.366;2023-02-28T15:43:39;18.25;;;14.20;;
8042;SDS011;4064;48.132;11.366;2023-02-28T15:46:09;14.07;;;12.17;;
8042;SDS011;4064;48.132;11.366;2023-02-28T15:48:53;15.55;;;13.98;;
8042;SDS011;4064;48.132;11.366;2023-02-28T15:53:58;15.95;;;13.73;;
8042;SDS011;4064;48.132;11.366;2023-02-28T15:56:33;15.13;;;13.15;;
8042;SDS011;4064;48.132;11.366;2023-02-28T15:59:28;18.60;;;15.15;;
8042;SDS011;4064;48.132;11.366;2023-02-28T16:02:03;15.52;;;13.15;;
8042;SDS011;4064;48.132;11.366;2023-02-28T16:04:54;16.35;;;11.82;;
8042;SDS011;4064;48.132;11.366;2023-02-28T16:07:43;15.75;;;14.15;;
8042;SDS011;4064;48.132;11.366;2023-02-28T16:10:10;17.00;;;14.33;;
8042;SDS011;4064;48.132;11.366;2023-02-28T16:12:39;15.55;;;13.07;;
8042;SDS011;4064;48.132;11.366;2023-02-28T16:15:07;16.73;;;12.32;;
8042;SDS011;4064;48.132;11.366;2023-02-28T16:17:41;14.20;;;12.30;;
8042;SDS011;4064;48.132;11.366;2023-02-28T16:22:41;18.90;;;13.20;;
8042;SDS011;4064;48.132;11.366;2023-02-28T16:25:11;27.17;;;13.20;;
8042;SDS011;4064;48.132;11.366;2023-02-28T16:27:41;20.38;;;14.52;;
8042;SDS011;4064;48.132;11.366;2023-02-28T16:30:24;16.10;;;14.15;;
8042;SDS011;4064;48.132;11.366;2023-02-28T16:32:54;16.20;;;13.20;;
8042;SDS011;4064;48.132;11.366;2023-02-28T16:35:20;17.42;;;14.55;;
8042;SDS011;4064;48.132;11.366;2023-02-28T16:37:46;17.25;;;13.45;;
8042;SDS011;4064;48.132;11.366;2023-02-28T16:40:17;17.20;;;13.60;;
8042;SDS011;4064;48.132;11.366;2023-02-28T16:42:46;18.67;;;13.15;;
8042;SDS011;4064;48.132;11.366;2023-02-28T16:45:18;15.20;;;13.38;;
8042;SDS011;4064;48.132;11.366;2023-02-28T16:47:48;15.45;;;13.85;;
8042;SDS011;4064;48.132;11.366;2023-02-28T16:50:19;16.00;;;13.32;;
8042;SDS011;4064;48.132;11.366;2023-02-28T16:52:47;17.50;;;14.20;;
8042;SDS011;4064;48.132;11.366;2023-02-28T16:55:14;19.88;;;16.42;;
8042;SDS011;4064;48.132;11.366;2023-02-28T16:57:41;17.38;;;14.10;;
8042;SDS011;4064;48.132;11.366;2023-02-28T17:00:10;17.77;;;14.50;;
8042;SDS011;4064;48.132;11.366;2023-02-28T17:02:37;15.77;;;12.90;;
8042;SDS011;4064;48.132;11.366;2023-02-28T17:05:03;24.87;;;22.17;;
8042;SDS011;4064;48.132;11.366;2023-02-28T17:07:29;19.92;;;15.07;;
8042;SDS011;4064;48.132;11.366;2023-02-28T17:09:55;16.95;;;14.50;;
8042;SDS011;4064;48.132;11.366;2023-02-28T17:12:21;18.13;;;15.30;;
8042;SDS011;4064;48.132;11.366;2023-02-28T17:14:47;18.77;;;15.90;;
8042;SDS011;4064;48.132;11.366;2023-02-28T17:17:15;16.00;;;14.00;;
8042;SDS011;4064;48.132;11.366;2023-02-28T17:19:44;16.55;;;14.20;;
8042;SDS011;4064;48.132;11.366;2023-02-28T17:22:10;17.57;;;14.10;;
8042;SDS011;4064;48.132;11.366;2023-02-28T17:24:36;17.43;;;14.13;;
8042;SDS011;4064;48.132;11.366;2023-02-28T17:27:02;15.87;;;13.50;;
8042;SDS011;4064;48.132;11.366;2023-02-28T17:29:28;19.20;;;13.98;;
8042;SDS011;4064;48.132;11.366;2023-02-28T17:31:54;18.40;;;15.70;;
8042;SDS011;4064;48.132;11.366;2023-02-28T17:34:20;16.17;;;13.43;;